Time;durP1;ratioP1;P1;durP2;ratioP2;P2;SDS_P1;SDS_P2;PMS_P1;PMS_P2;Temp;Humidity;BMP_temperature;BMP_pressure;BME280_temperature;BME280_humidity;BME280_pressure;Samples;Min_cycle;Max_cycle;Signal;HPM_P1;HPM_P2
2024/01/15 00:00:19;;;;;;;5.33;4.83;;;15.20;54.80;15.90;99509.00;;;;5024407;28;20299;-42
2024/01/15 00:02:44;;;;;;;5.27;4.77;;;15.10;54.80;15.90;99509.00;;;;5068508;28;20227;-42
2024/01/15 00:05:10;;;;;;;5.67;4.97;;;15.10;54.80;15.80;99507.00;;;;5039765;28;20216;-43
2024/01/15 00:07:36;;;;;;;5.37;4.90;;;15.00;54.80;15.80;99512.00;;;;5036192;28;20182;-43
2024/01/15 00:10:02;;;;;;;5.80;5.10;;;15.10;54.90;15.80;99512.00;;;;5069055;28;20177;-43
2024/01/15 00:12:28;;;;;;;5.53;5.03;;;15.00;54.70;15.80;99500.00;;;;5066399;28;20673;-44
2024/01/15 00:14:54;;;;;;;5.07;4.63;;;15.00;54.80;15.80;99490.00;;;;5067996;28;20192;-43
2024/01/15 00:17:19;;;;;;;5.27;4.77;;;15.00;54.80;15.80;99500.00;;;;5078135;28;20173;-43
2024/01/15 00:19:45;;;;;;;5.20;4.70;;;15.00;54.90;15.80;99500.00;;;;5049878;28;20177;-42
2024/01/15 00:22:11;;;;;;;5.57;5.07;;;14.90;54.70;15.80;99496.00;;;;5069989;28;20182;-44
2024/01/15 00:24:37;;;;;;;5.20;4.77;;;14.90;54.90;15.70;99503.00;;;;5070376;28;20200;-43
2024/01/15 00:27:02;;;;;;;5.03;4.63;;;14.90;55.10;15.70;99497.00;;;;5063777;28;20169;-43
2024/01/15 00:29:28;;;;;;;5.63;5.13;;;14.80;55.10;15.70;99497.00;;;;5048880;28;20178;-42
2024/01/15 00:31:54;;;;;;;5.73;5.23;;;14.80;55.20;15.70;99503.00;;;;5069353;28;20756;-42
2024/01/15 00:34:20;;;;;;;5.37;4.87;;;14.80;55.30;15.70;99493.00;;;;5069570;28;20248;-42
2024/01/15 00:36:46;;;;;;;5.53;5.03;;;14.80;55.30;15.70;99491.00;;;;5069749;28;20189;-43
2024/01/15 00:39:11;;;;;;;5.77;5.13;;;14.70;55.30;15.70;99490.00;;;;5069659;28;20216;-43
2024/01/15 00:41:37;;;;;;;5.47;5.07;;;14.70;55.50;15.70;99477.00;;;;5048634;28;20170;-43
2024/01/15 00:44:03;;;;;;;5.40;4.90;;;14.70;55.50;15.70;99478.00;;;;5069580;28;20196;-44
2024/01/15 00:46:29;;;;;;;5.30;4.80;;;14.60;55.50;15.70;99479.00;;;;5069775;28;20209;-43
2024/01/15 00:48:55;;;;;;;5.30;4.80;;;14.60;55.60;15.60;99478.00;;;;5071598;28;20177;-43
2024/01/15 00:51:20;;;;;;;5.00;4.60;;;14.60;55.60;15.60;99474.00;;;;5072590;28;20288;-43
2024/01/15 00:53:46;;;;;;;5.40;4.90;;;14.60;55.80;15.60;99480.00;;;;5069695;28;20209;-44
2024/01/15 00:56:12;;;;;;;5.33;4.90;;;14.60;55.90;15.60;99482.00;;;;5069966;28;20259;-43
2024/01/15 00:58:38;;;;;;;5.20;4.80;;;14.50;56.50;15.60;99477.00;;;;5048879;28;20714;-43
2024/01/15 01:01:03;;;;;;;5.20;4.70;;;14.50;55.90;15.60;99466.00;;;;5063849;28;20178;-43
2024/01/15 01:03:29;;;;;;;5.33;4.83;;;14.50;56.00;15.50;99458.00;;;;5047595;28;20193;-43
2024/01/15 01:05:55;;;;;;;5.30;4.90;;;14.50;56.00;15.50;99464.00;;;;5043456;28;20570;-43
2024/01/15 01:08:21;;;;;;;5.33;4.83;;;14.50;56.40;15.50;99457.00;;;;5064010;28;20203;-43
2024/01/15 01:10:46;;;;;;;4.97;4.57;;;14.40;56.50;15.50;99470.00;;;;5068535;28;20177;-42
2024/01/15 01:13:12;;;;;;;6.07;4.93;;;14.50;56.80;15.50;99468.00;;;;5046638;28;20202;-44
2024/01/15 01:15:38;;;;;;;5.20;4.70;;;14.50;56.80;15.50;99475.00;;;;5065503;28;20229;-43
2024/01/15 01:18:04;;;;;;;5.50;4.97;;;14.50;56.50;15.50;99464.00;;;;5062949;28;20227;-43
2024/01/15 01:20:30;;;;;;;5.20;4.80;;;14.40;56.40;15.50;99459.00;;;;5042612;28;20654;-43
2024/01/15 01:22:56;;;;;;;5.57;4.93;;;14.40;56.40;15.40;99466.00;;;;5067533;28;20220;-42
2024/01/15 01:25:21;;;;;;;6.03;5.53;;;14.40;56.40;15.40;99463.00;;;;5071041;28;20212;-42
2024/01/15 01:27:47;;;;;;;5.73;5.23;;;14.30;56.30;15.40;99454.00;;;;5071153;28;20181;-44
2024/01/15 01:30:13;;;;;;;6.20;5.60;;;14.40;56.50;15.40;99449.00;;;;5068242;28;20249;-43
2024/01/15 01:32:39;;;;;;;5.50;5.00;;;14.30;56.30;15.40;99460.00;;;;5048447;28;20578;-43
2024/01/15 01:35:05;;;;;;;5.53;5.03;;;14.30;56.30;15.40;99449.00;;;;5036644;28;20279;-43
2024/01/15 01:37:30;;;;;;;5.80;5.30;;;14.30;56.30;15.30;99454.00;;;;5068410;28;20170;-43
2024/01/15 01:39:56;;;;;;;5.50;5.00;;;14.30;56.30;15.30;99457.00;;;;5062489;28;20261;-44
2024/01/15 01:42:22;;;;;;;5.87;5.33;;;14.30;56.30;15.30;99448.00;;;;5068134;28;20201;-43
2024/01/15 01:44:47;;;;;;;5.63;5.13;;;14.20;57.10;15.30;99447.00;;;;5067770;28;20204;-42
2024/01/15 01:47:13;;;;;;;5.73;5.13;;;14.20;56.40;15.10;99445.00;;;;5046983;28;20194;-43
2024/01/15 01:49:39;;;;;;;5.23;4.83;;;14.20;56.30;15.30;99451.00;;;;5026708;28;20224;-42
2024/01/15 01:52:06;;;;;;;5.40;4.90;;;14.20;56.20;15.30;99454.00;;;;5036245;28;20646;-43
2024/01/15 01:54:32;;;;;;;5.50;5.00;;;14.30;56.40;15.30;99446.00;;;;5040317;28;20206;-43
2024/01/15 01:56:58;;;;;;;5.30;4.80;;;14.20;56.30;15.20;99436.00;;;;5062588;28;20661;-43
2024/01/15 01:59:25;;;;;;;4.93;4.53;;;14.20;56.40;15.20;99446.00;;;;5068073;28;20181;-42
2024/01/15 02:01:51;;;;;;;5.70;5.20;;;14.20;56.40;15.20;99440.00;;;;5045056;28;20186;-42
2024/01/15 02:04:17;;;;;;;5.50;5.00;;;14.20;56.30;15.20;99444.00;;;;5038264;28;20701;-42
2024/01/15 02:06:43;;;;;;;5.30;4.80;;;14.20;56.30;15.20;99444.00;;;;5065691;28;20771;-43
2024/01/15 02:09:09;;;;;;;5.17;4.67;;;14.20;56.20;15.20;99459.00;;;;5061308;28;20208;-43
2024/01/15 02:11:35;;;;;;;5.20;4.70;;;14.20;56.30;15.20;99460.00;;;;5067692;28;20173;-43
2024/01/15 02:14:02;;;;;;;5.20;4.70;;;14.20;56.30;15.20;99471.00;;;;5067530;28;20197;-43
2024/01/15 02:16:28;;;;;;;5.20;4.70;;;14.20;56.30;15.10;99460.00;;;;5046899;28;20248;-43
2024/01/15 02:18:53;;;;;;;4.97;4.53;;;14.20;56.20;15.10;99460.00;;;;5067433;28;20234;-43
2024/01/15 02:21:19;;;;;;;5.30;4.80;;;14.20;56.30;15.10;99462.00;;;;5067479;28;20170;-43
2024/01/15 02:23:45;;;;;;;5.40;4.90;;;14.10;56.30;15.10;99460.00;;;;5046777;28;20178;-43
2024/01/15 02:26:10;;;;;;;4.80;4.40;;;14.10;56.40;15.10;99463.00;;;;5038926;28;20565;-43
2024/01/15 02:28:36;;;;;;;5.17;4.77;;;14.10;56.40;15.10;99462.00;;;;5049348;28;20200;-43
2024/01/15 02:31:02;;;;;;;5.00;4.60;;;14.10;56.40;15.10;99452.00;;;;5065511;28;20178;-43
2024/01/15 02:33:27;;;;;;;4.93;4.47;;;14.10;56.40;15.10;99451.00;;;;5064319;28;20201;-43
2024/01/15 02:35:53;;;;;;;5.10;4.70;;;14.10;56.40;15.10;99453.00;;;;5067152;28;20581;-44
2024/01/15 02:38:19;;;;;;;5.03;4.60;;;14.10;56.40;15.00;99445.00;;;;5047716;28;20178;-43
2024/01/15 02:40:45;;;;;;;5.03;4.63;;;14.00;56.40;15.00;99459.00;;;;5070879;28;20193;-44
2024/01/15 02:43:11;;;;;;;4.80;4.40;;;14.00;56.50;15.00;99457.00;;;;5070955;28;20196;-43
2024/01/15 02:45:37;;;;;;;4.70;4.30;;;14.00;56.40;15.00;99466.00;;;;5070754;28;20262;-43
2024/01/15 02:48:03;;;;;;;5.00;4.50;;;14.00;56.60;15.00;99460.00;;;;5065409;28;20272;-43
2024/01/15 02:50:29;;;;;;;4.70;4.30;;;14.00;56.70;15.00;99451.00;;;;5070284;28;20271;-43
2024/01/15 02:52:54;;;;;;;4.90;4.50;;;13.90;56.60;15.00;99456.00;;;;5045676;28;20254;-43
2024/01/15 02:55:20;;;;;;;5.07;4.57;;;14.00;56.70;15.00;99454.00;;;;5070700;28;20202;-43
2024/01/15 02:57:46;;;;;;;4.70;4.30;;;14.00;56.80;14.90;99461.00;;;;5065586;28;20389;-43
2024/01/15 03:00:12;;;;;;;4.90;4.50;;;14.00;56.60;14.90;99459.00;;;;5075827;28;20185;-42
2024/01/15 03:02:39;;;;;;;4.93;4.50;;;14.00;57.30;14.90;99463.00;;;;5070975;28;20185;-43
2024/01/15 03:05:07;;;;;;;4.93;4.50;;;14.00;56.60;14.90;99459.00;;;;5072237;28;20205;-43
2024/01/15 03:07:33;;;;;;;4.83;4.43;;;14.00;56.60;14.90;99456.00;;;;5071144;28;20185;-44
2024/01/15 03:09:59;;;;;;;4.90;4.50;;;14.00;56.50;14.90;99456.00;;;;5070032;28;20235;-42
2024/01/15 03:12:25;;;;;;;5.00;4.50;;;13.90;56.50;14.90;99461.00;;;;5071283;28;20216;-42
2024/01/15 03:14:50;;;;;;;5.23;4.80;;;13.90;56.60;14.90;99468.00;;;;5070461;28;20205;-43
2024/01/15 03:17:16;;;;;;;5.00;4.60;;;13.90;56.60;14.90;99471.00;;;;5048115;28;20181;-43
2024/01/15 03:19:42;;;;;;;4.97;4.57;;;13.90;56.60;14.90;99466.00;;;;5067998;28;20178;-43
2024/01/15 03:22:08;;;;;;;4.77;4.37;;;13.90;57.30;14.90;99471.00;;;;5070129;28;20185;-43
2024/01/15 03:24:34;;;;;;;4.60;4.20;;;13.90;56.70;14.80;99470.00;;;;5070123;28;20227;-43
2024/01/15 03:27:00;;;;;;;4.43;4.03;;;13.80;56.60;14.90;99468.00;;;;5035974;28;20181;-43
2024/01/15 03:29:26;;;;;;;4.80;4.40;;;13.80;56.60;14.80;99465.00;;;;5065602;28;20673;-42
2024/01/15 03:31:52;;;;;;;4.47;4.07;;;13.80;56.60;14.80;99459.00;;;;5039124;28;20197;-43
2024/01/15 03:34:18;;;;;;;4.87;4.47;;;13.80;56.60;14.80;99462.00;;;;5069853;28;20288;-43
2024/01/15 03:36:43;;;;;;;4.57;4.17;;;13.80;56.60;14.80;99460.00;;;;5069745;28;20188;-42
2024/01/15 03:39:09;;;;;;;5.17;4.53;;;13.80;56.60;14.80;99461.00;;;;5069994;28;20185;-42
2024/01/15 03:41:35;;;;;;;5.00;4.50;;;13.80;56.60;14.80;99459.00;;;;5069613;28;20567;-43
2024/01/15 03:44:01;;;;;;;4.37;3.97;;;13.80;56.60;14.80;99464.00;;;;5069897;28;20205;-43
2024/01/15 03:46:27;;;;;;;4.37;4.03;;;13.80;56.70;14.80;99450.00;;;;5069678;28;20689;-43
2024/01/15 03:48:52;;;;;;;4.97;4.50;;;13.80;56.80;14.70;99453.00;;;;5062615;28;20273;-43
2024/01/15 03:51:18;;;;;;;4.57;4.17;;;13.80;56.90;14.70;99458.00;;;;5069790;28;20185;-43
2024/01/15 03:53:44;;;;;;;4.70;4.20;;;13.80;56.90;14.70;99462.00;;;;5069706;28;20209;-43
2024/01/15 03:56:10;;;;;;;4.70;4.30;;;13.70;56.90;14.70;99468.00;;;;5069616;28;20201;-43
2024/01/15 03:58:35;;;;;;;4.50;4.10;;;13.70;56.90;14.70;99460.00;;;;5044451;28;20185;-42
2024/01/15 04:01:01;;;;;;;4.80;4.33;;;13.70;57.00;14.70;99459.00;;;;5070079;28;20170;-43
2024/01/15 04:03:27;;;;;;;4.60;4.20;;;13.70;57.10;14.70;99456.00;;;;5064826;28;20190;-42
2024/01/15 04:05:52;;;;;;;4.67;4.27;;;13.70;56.90;14.70;99453.00;;;;5070071;28;20228;-43
2024/01/15 04:08:18;;;;;;;4.43;4.03;;;13.70;57.00;14.60;99445.00;;;;5049884;28;20185;-50
2024/01/15 04:10:44;;;;;;;4.40;4.00;;;13.70;57.00;14.60;99451.00;;;;5069864;28;20185;-43
2024/01/15 04:13:10;;;;;;;4.60;4.20;;;13.70;57.00;14.60;99437.00;;;;5070305;28;20307;-43
2024/01/15 04:15:36;;;;;;;4.43;4.03;;;13.70;57.00;14.60;99436.00;;;;5039386;28;20202;-43
2024/01/15 04:18:02;;;;;;;4.30;3.90;;;13.60;57.00;14.60;99440.00;;;;5069946;28;20181;-43
2024/01/15 04:20:28;;;;;;;4.17;3.87;;;13.60;57.00;14.60;99437.00;;;;5043704;28;20254;-44
2024/01/15 04:22:54;;;;;;;4.67;4.07;;;13.60;57.40;14.60;99439.00;;;;5073834;28;20252;-43
2024/01/15 04:25:19;;;;;;;4.90;4.40;;;13.60;57.10;14.60;99431.00;;;;5070132;28;20201;-42
2024/01/15 04:27:45;;;;;;;4.20;3.90;;;13.60;57.10;14.50;99437.00;;;;5069828;28;20185;-41
2024/01/15 04:30:11;;;;;;;4.33;3.93;;;13.60;58.20;14.50;99427.00;;;;5069686;28;20727;-42
2024/01/15 04:32:37;;;;;;;4.57;4.17;;;13.50;57.90;14.50;99422.00;;;;5069648;28;20197;-42
2024/01/15 04:35:03;;;;;;;4.97;3.87;;;13.50;57.80;14.50;99421.00;;;;5069859;28;20251;-42
2024/01/15 04:37:28;;;;;;;4.57;4.17;;;13.50;58.30;14.50;99425.00;;;;5045540;28;20178;-42
2024/01/15 04:39:54;;;;;;;4.50;4.10;;;13.40;58.00;14.50;99413.00;;;;5068530;28;20203;-42
2024/01/15 04:42:21;;;;;;;4.43;4.03;;;13.50;58.00;14.50;99414.00;;;;5069811;28;20178;-42
2024/01/15 04:44:47;;;;;;;5.47;4.03;;;13.50;57.80;14.50;99412.00;;;;5069294;28;20251;-42
2024/01/15 04:47:12;;;;;;;7.07;4.17;;;13.50;57.90;14.40;99405.00;;;;5069410;28;20197;-42
2024/01/15 04:49:38;;;;;;;4.83;4.20;;;13.50;57.70;14.50;99400.00;;;;5069866;28;20184;-43
2024/01/15 04:52:04;;;;;;;5.23;3.93;;;13.40;57.50;14.40;99410.00;;;;5070156;28;20184;-50
2024/01/15 04:54:30;;;;;;;4.43;3.83;;;13.40;57.60;14.20;99411.00;;;;5070017;28;20239;-42
2024/01/15 04:56:55;;;;;;;4.50;4.00;;;13.40;57.40;14.40;99396.00;;;;5045061;28;20178;-42
2024/01/15 04:59:21;;;;;;;5.23;4.63;;;13.40;57.40;14.40;99410.00;;;;5039846;28;20688;-42
2024/01/15 05:01:48;;;;;;;4.83;4.37;;;13.40;57.50;14.40;99404.00;;;;5066756;28;20177;-42
2024/01/15 05:04:14;;;;;;;4.83;4.33;;;13.40;57.30;14.40;99405.00;;;;5048855;28;20628;-42
2024/01/15 05:06:40;;;;;;;4.60;4.20;;;13.40;57.30;14.40;99398.00;;;;5069163;28;20264;-43
2024/01/15 05:09:05;;;;;;;5.20;4.37;;;13.40;57.10;14.40;99399.00;;;;5069051;28;20674;-42
2024/01/15 05:11:31;;;;;;;5.97;3.97;;;13.30;57.00;14.40;99390.00;;;;5048680;28;20185;-43
2024/01/15 05:13:57;;;;;;;5.23;4.43;;;13.30;56.90;14.40;99396.00;;;;5068758;28;20202;-43
2024/01/15 05:16:23;;;;;;;4.87;4.40;;;13.30;56.80;14.40;99394.00;;;;5069458;28;20205;-42
2024/01/15 05:18:48;;;;;;;4.90;4.40;;;13.40;56.80;14.30;99390.00;;;;5069548;28;20197;-42
2024/01/15 05:21:14;;;;;;;5.07;4.53;;;13.30;56.70;14.30;99389.00;;;;5070250;28;20186;-42
2024/01/15 05:23:40;;;;;;;4.90;4.40;;;13.30;56.60;14.30;99386.00;;;;5068895;28;20553;-43
2024/01/15 05:26:06;;;;;;;4.60;4.20;;;13.30;56.60;14.30;99391.00;;;;5068933;28;20208;-42
2024/01/15 05:28:32;;;;;;;5.97;4.83;;;13.30;56.70;14.30;99390.00;;;;5069181;28;20221;-42
2024/01/15 05:30:57;;;;;;;5.87;4.47;;;13.30;56.70;14.30;99395.00;;;;5068689;28;20670;-42
2024/01/15 05:33:23;;;;;;;5.97;4.30;;;13.20;56.80;14.30;99387.00;;;;5068946;28;20209;-41
2024/01/15 05:35:50;;;;;;;4.50;4.10;;;13.20;56.80;14.20;99395.00;;;;5069055;28;20208;-43
2024/01/15 05:38:16;;;;;;;5.00;4.50;;;13.20;56.90;14.30;99395.00;;;;5062784;28;20182;-42
2024/01/15 05:40:42;;;;;;;5.30;4.40;;;13.30;57.30;14.30;99385.00;;;;5068201;28;20178;-43
2024/01/15 05:43:08;;;;;;;5.20;4.10;;;13.20;57.20;14.20;99380.00;;;;5068548;28;20220;-42
2024/01/15 05:45:35;;;;;;;7.13;4.30;;;13.20;57.10;14.20;99379.00;;;;5068776;28;20209;-42
2024/01/15 05:48:01;;;;;;;9.43;5.07;;;13.20;57.30;14.20;99379.00;;;;5067897;28;20199;-43
2024/01/15 05:50:27;;;;;;;12.13;4.67;;;13.20;57.30;14.20;99383.00;;;;5063516;28;20298;-43
2024/01/15 05:52:53;;;;;;;13.10;4.77;;;13.20;57.40;14.20;99374.00;;;;5066383;28;20209;-42
2024/01/15 05:55:19;;;;;;;10.43;4.83;;;13.20;57.50;14.20;99381.00;;;;5044757;28;20201;-42
2024/01/15 05:57:45;;;;;;;8.67;4.50;;;13.20;57.70;14.20;99391.00;;;;5066540;28;20212;-43
2024/01/15 06:00:12;;;;;;;7.40;4.10;;;13.10;57.40;14.20;99372.00;;;;5067273;28;20209;-42
2024/01/15 06:02:38;;;;;;;8.63;3.97;;;13.10;57.40;14.20;99378.00;;;;5068426;28;20649;-42
2024/01/15 06:05:04;;;;;;;11.33;4.63;;;13.20;57.70;14.10;99373.00;;;;5068359;28;20209;-42
2024/01/15 06:07:30;;;;;;;11.90;4.30;;;13.20;57.90;14.10;99368.00;;;;5068403;28;20591;-42
2024/01/15 06:09:56;;;;;;;8.00;4.33;;;13.10;57.80;14.10;99363.00;;;;5045277;28;20185;-42
2024/01/15 06:12:22;;;;;;;7.60;4.20;;;13.10;57.60;14.10;99363.00;;;;5069180;28;20194;-42
2024/01/15 06:14:48;;;;;;;7.80;4.20;;;13.10;58.20;14.10;99360.00;;;;5069993;28;20216;-42
2024/01/15 06:17:14;;;;;;;7.17;3.77;;;13.10;58.30;14.10;99356.00;;;;5079980;28;20680;-43
2024/01/15 06:19:39;;;;;;;7.73;4.20;;;13.10;58.10;14.10;99337.00;;;;5069015;28;20174;-43
2024/01/15 06:22:05;;;;;;;7.93;3.63;;;13.10;58.10;14.10;99355.00;;;;5071509;28;20193;-43
2024/01/15 06:24:31;;;;;;;6.90;3.97;;;13.10;58.00;14.10;99350.00;;;;5071438;28;20205;-43
2024/01/15 06:26:57;;;;;;;6.73;3.80;;;13.10;58.10;14.00;99357.00;;;;5071719;28;20182;-43
2024/01/15 06:29:25;;;;;;;8.17;3.83;;;13.00;58.00;14.00;99350.00;;;;5071695;28;20188;-43
2024/01/15 06:31:51;;;;;;;7.57;3.77;;;13.00;57.90;14.00;99349.00;;;;5071668;28;20188;-43
2024/01/15 06:34:16;;;;;;;5.37;3.57;;;13.00;58.00;14.00;99349.00;;;;5071224;28;20565;-43
2024/01/15 06:36:42;;;;;;;4.30;3.47;;;13.00;58.00;14.00;99358.00;;;;5072363;28;20182;-43
2024/01/15 06:39:09;;;;;;;5.27;3.80;;;13.00;58.00;14.00;99365.00;;;;5072669;28;20178;-43
2024/01/15 06:41:41;;;;;;;6.20;3.70;;;13.00;58.00;14.00;99345.00;;;;5040680;28;20213;-43
2024/01/15 06:44:07;;;;;;;6.53;3.60;;;12.90;57.80;14.00;99352.00;;;;5071440;28;20209;-43
2024/01/15 06:46:32;;;;;;;5.03;3.70;;;13.00;57.80;14.00;99345.00;;;;5071564;28;20247;-43
2024/01/15 06:48:58;;;;;;;7.67;3.70;;;12.90;57.80;14.00;99350.00;;;;5070970;28;20238;-43
2024/01/15 06:51:24;;;;;;;5.73;3.37;;;12.90;58.00;14.00;99341.00;;;;5072526;28;20186;-43
2024/01/15 06:53:49;;;;;;;3.73;3.20;;;12.90;58.10;13.90;99347.00;;;;5070873;28;20600;-43
2024/01/15 06:56:15;;;;;;;7.07;3.40;;;12.90;58.00;13.90;99342.00;;;;5071696;28;20198;-42
2024/01/15 06:58:41;;;;;;;5.10;3.43;;;12.90;58.00;13.90;99343.00;;;;5071407;28;20653;-42
2024/01/15 07:01:07;;;;;;;5.57;3.50;;;12.90;57.90;13.90;99345.00;;;;5070600;28;20186;-42
2024/01/15 07:03:33;;;;;;;4.77;3.40;;;12.90;58.70;13.90;99343.00;;;;5069628;28;20181;-42
2024/01/15 07:05:59;;;;;;;3.37;3.07;;;12.90;58.00;13.90;99342.00;;;;5049037;28;20608;-43
2024/01/15 07:08:24;;;;;;;5.07;3.50;;;12.80;57.80;13.90;99347.00;;;;5069877;28;20201;-43
2024/01/15 07:10:50;;;;;;;4.80;3.53;;;12.80;58.70;13.90;99348.00;;;;5071431;28;20200;-43
2024/01/15 07:13:16;;;;;;;3.57;3.00;;;12.80;58.00;13.90;99354.00;;;;5070392;28;20503;-43
2024/01/15 07:15:41;;;;;;;3.97;3.10;;;12.80;58.00;13.90;99356.00;;;;5070590;28;20197;-43
2024/01/15 07:18:07;;;;;;;3.30;2.93;;;12.80;58.00;13.90;99275.00;;;;5071111;28;20672;-42
2024/01/15 07:20:33;;;;;;;3.77;3.37;;;12.80;58.00;13.80;99348.00;;;;5070634;28;20181;-43
2024/01/15 07:22:59;;;;;;;4.53;3.20;;;12.80;58.00;13.80;99337.00;;;;5070310;28;20235;-43
2024/01/15 07:25:26;;;;;;;3.77;3.30;;;12.80;58.00;13.80;99348.00;;;;5069973;28;20557;-42
2024/01/15 07:27:53;;;;;;;3.37;3.03;;;12.80;58.20;13.80;99336.00;;;;5071139;28;20324;-42
2024/01/15 07:30:19;;;;;;;4.63;3.47;;;12.80;58.00;13.80;99351.00;;;;5070857;28;20195;-42
2024/01/15 07:32:45;;;;;;;4.20;2.90;;;12.80;58.00;13.80;99269.00;;;;5070037;28;20561;-42
2024/01/15 07:35:11;;;;;;;3.53;2.90;;;12.70;58.00;13.80;99353.00;;;;5067197;28;20198;-43
2024/01/15 07:37:36;;;;;;;3.13;2.80;;;12.70;58.00;13.80;99346.00;;;;5067043;28;20186;-43
2024/01/15 07:40:04;;;;;;;3.40;3.10;;;12.70;57.80;13.70;99354.00;;;;5070571;28;20611;-43
2024/01/15 07:42:30;;;;;;;3.30;3.00;;;12.70;57.90;13.80;99346.00;;;;5039297;28;20669;-42
2024/01/15 07:44:55;;;;;;;3.33;2.90;;;12.70;57.80;13.70;99343.00;;;;5069774;28;20197;-41
2024/01/15 07:47:21;;;;;;;3.27;2.90;;;12.70;57.90;13.70;99339.00;;;;5070552;28;20243;-42
2024/01/15 07:49:47;;;;;;;4.47;3.00;;;12.70;58.00;13.70;99339.00;;;;5070140;28;20178;-43
2024/01/15 07:52:13;;;;;;;3.50;2.87;;;12.70;58.30;13.70;99338.00;;;;5070413;28;20189;-43
2024/01/15 07:54:39;;;;;;;3.60;3.10;;;12.70;58.00;13.70;99339.00;;;;5044591;28;20764;-42
2024/01/15 07:57:05;;;;;;;3.30;3.00;;;12.60;57.90;13.70;99347.00;;;;5070348;28;20182;-43
2024/01/15 07:59:31;;;;;;;3.43;3.13;;;12.60;58.00;13.70;99349.00;;;;5070276;28;20257;-42
2024/01/15 08:01:58;;;;;;;3.10;2.80;;;12.70;57.90;13.70;99342.00;;;;5069841;28;20185;-42
2024/01/15 08:04:24;;;;;;;3.53;3.00;;;12.60;58.60;13.70;99335.00;;;;5069894;28;20292;-42
2024/01/15 08:06:49;;;;;;;4.13;2.90;;;12.70;58.40;13.70;99334.00;;;;5038726;28;20258;-42
2024/01/15 08:09:15;;;;;;;4.40;2.87;;;12.70;58.30;13.70;99339.00;;;;5070195;28;20213;-42
2024/01/15 08:11:41;;;;;;;4.37;3.37;;;12.70;58.30;13.60;99326.00;;;;5068793;28;20201;-43
2024/01/15 08:14:08;;;;;;;4.50;3.23;;;12.70;58.60;13.60;99328.00;;;;5069545;28;20689;-45
2024/01/15 08:16:34;;;;;;;3.47;3.13;;;12.80;58.80;13.70;99335.00;;;;5070055;28;20197;-42
2024/01/15 08:18:59;;;;;;;3.67;3.27;;;12.90;58.80;13.70;99340.00;;;;5070347;28;20226;-42
2024/01/15 08:21:25;;;;;;;3.90;3.33;;;13.00;58.80;13.70;99338.00;;;;5069047;28;20181;-42
2024/01/15 08:23:51;;;;;;;3.43;2.80;;;13.10;58.80;13.80;99330.00;;;;5070107;28;20178;-42
2024/01/15 08:26:17;;;;;;;5.20;3.40;;;13.10;58.70;13.90;99336.00;;;;5061730;28;20205;-43
2024/01/15 08:28:43;;;;;;;3.63;2.90;;;13.30;58.80;14.00;99329.00;;;;5067056;28;20253;-42
2024/01/15 08:31:09;;;;;;;3.07;2.77;;;13.40;58.60;14.10;99319.00;;;;5065103;28;20178;-43
2024/01/15 08:33:35;;;;;;;5.00;2.90;;;13.50;58.30;14.10;99321.00;;;;5067892;28;20205;-42
2024/01/15 08:36:01;;;;;;;6.23;2.90;;;13.60;58.20;14.30;99327.00;;;;5066355;28;20196;-42
2024/01/15 08:38:27;;;;;;;4.83;2.70;;;13.80;58.10;14.40;99246.00;;;;5068179;28;20761;-42
2024/01/15 08:40:53;;;;;;;6.90;2.87;;;13.90;58.30;14.50;99317.00;;;;5061638;28;20185;-42
2024/01/15 08:43:19;;;;;;;9.40;2.80;;;14.10;58.20;14.60;99317.00;;;;5068840;28;20178;-42
2024/01/15 08:45:45;;;;;;;6.33;2.93;;;14.20;57.90;14.70;99321.00;;;;5042688;28;20210;-43
2024/01/15 08:48:10;;;;;;;5.97;3.13;;;14.50;58.00;14.80;99320.00;;;;5068594;28;20629;-44
2024/01/15 08:50:36;;;;;;;7.27;2.97;;;14.50;58.70;15.00;99319.00;;;;5069487;28;20260;-44
2024/01/15 08:53:02;;;;;;;17.00;3.70;;;14.60;59.60;15.00;99313.00;;;;5067593;28;20205;-44
2024/01/15 08:55:28;;;;;;;12.63;3.67;;;14.60;60.50;15.10;99306.00;;;;5068647;28;20198;-43
2024/01/15 08:57:54;;;;;;;12.43;3.40;;;14.70;60.90;15.20;99311.00;;;;5068442;28;20177;-43
2024/01/15 09:00:20;;;;;;;10.50;3.70;;;14.80;60.70;15.30;99314.00;;;;5067946;28;20181;-43
2024/01/15 09:02:45;;;;;;;10.03;3.57;;;14.90;60.70;15.40;99319.00;;;;5067766;28;20220;-43
2024/01/15 09:05:11;;;;;;;8.03;3.60;;;14.90;61.30;15.50;99311.00;;;;5068191;28;20197;-43
2024/01/15 09:07:37;;;;;;;8.17;3.83;;;15.00;61.20;15.50;99324.00;;;;5037537;28;20181;-44
2024/01/15 09:10:03;;;;;;;9.70;3.70;;;15.10;60.70;15.60;99321.00;;;;5060606;28;20181;-42
2024/01/15 09:12:29;;;;;;;9.23;3.37;;;15.20;60.70;15.70;99324.00;;;;5068694;28;20204;-43
2024/01/15 09:14:55;;;;;;;9.40;3.37;;;15.20;60.80;15.70;99319.00;;;;5068952;28;20372;-43
2024/01/15 09:17:23;;;;;;;6.47;3.40;;;15.40;60.50;15.80;99332.00;;;;5062483;28;20178;-42
2024/01/15 09:19:49;;;;;;;17.20;3.67;;;15.50;60.10;15.90;99324.00;;;;5068667;28;20645;-43
2024/01/15 09:22:18;;;;;;;7.13;3.23;;;15.60;59.70;16.00;99323.00;;;;5067863;28;20206;-43
2024/01/15 09:24:44;;;;;;;6.07;3.03;;;15.70;59.60;16.10;99332.00;;;;5049301;28;20201;-44
2024/01/15 09:27:10;;;;;;;3.97;2.90;;;15.70;59.50;16.10;99332.00;;;;5067983;28;20185;-44
2024/01/15 09:29:39;;;;;;;5.97;2.93;;;15.80;59.20;16.20;99336.00;;;;5068816;28;20240;-43
2024/01/15 09:32:07;;;;;;;6.20;2.93;;;15.80;59.00;16.20;99346.00;;;;5068420;28;20181;-44
2024/01/15 09:34:33;;;;;;;5.93;3.27;;;15.80;58.80;16.30;99327.00;;;;5044784;28;20272;-44
2024/01/15 09:36:59;;;;;;;6.60;3.03;;;15.90;58.70;16.30;99346.00;;;;5068319;28;20181;-43
2024/01/15 09:39:26;;;;;;;5.37;3.20;;;15.80;58.70;16.30;99345.00;;;;5049165;28;20170;-43
2024/01/15 09:41:52;;;;;;;5.07;2.97;;;15.80;58.60;16.40;99346.00;;;;5068752;28;20177;-44
2024/01/15 09:44:18;;;;;;;6.70;2.90;;;15.90;58.40;16.40;99342.00;;;;5025036;28;20285;-43
2024/01/15 09:46:44;;;;;;;6.20;2.70;;;15.90;58.30;16.40;99347.00;;;;5036523;28;20277;-43
2024/01/15 09:49:10;;;;;;;5.07;3.23;;;15.90;58.30;16.50;99340.00;;;;5042937;28;20182;-44
2024/01/15 09:51:36;;;;;;;4.83;2.87;;;15.90;58.30;16.50;99349.00;;;;5039562;28;20269;-44
2024/01/15 09:54:03;;;;;;;3.73;2.80;;;15.90;58.30;16.50;99352.00;;;;5053937;28;20741;-43
2024/01/15 09:56:30;;;;;;;3.73;2.80;;;15.90;58.20;16.50;99357.00;;;;5073059;28;20205;-44
2024/01/15 09:58:57;;;;;;;4.37;2.97;;;15.90;58.10;16.50;99369.00;;;;5072681;28;20185;-43
2024/01/15 10:01:22;;;;;;;4.77;2.80;;;15.90;58.20;16.50;99363.00;;;;5043020;28;20193;-43
2024/01/15 10:03:48;;;;;;;3.33;2.63;;;15.90;58.20;16.50;99359.00;;;;5064512;28;20193;-44
2024/01/15 10:06:19;;;;;;;3.70;2.80;;;16.00;58.00;16.60;99351.00;;;;5048978;28;20205;-44
2024/01/15 10:08:51;;;;;;;7.00;2.90;;;16.00;58.00;16.60;99367.00;;;;5067326;28;20177;-43
2024/01/15 10:11:17;;;;;;;3.70;2.60;;;16.00;58.00;16.60;99367.00;;;;5062578;28;20224;-43
2024/01/15 10:13:44;;;;;;;3.73;2.80;;;16.00;58.00;16.60;99359.00;;;;5070600;28;20209;-44
2024/01/15 10:16:10;;;;;;;3.77;2.83;;;16.00;57.90;16.60;99359.00;;;;5071026;28;20312;-43
2024/01/15 10:18:36;;;;;;;4.30;2.80;;;16.00;57.80;16.60;99358.00;;;;5070178;28;20173;-43
2024/01/15 10:21:03;;;;;;;4.10;2.70;;;16.00;57.70;16.60;99359.00;;;;5070669;28;20388;-43
2024/01/15 10:23:31;;;;;;;4.37;2.63;;;16.00;57.70;16.70;99365.00;;;;5070778;28;20367;-43
2024/01/15 10:25:58;;;;;;;2.60;2.40;;;16.00;57.70;16.70;99364.00;;;;5070417;28;20301;-43
2024/01/15 10:28:26;;;;;;;3.43;2.50;;;15.90;57.60;16.60;99367.00;;;;5070868;28;20178;-43
2024/01/15 10:30:57;;;;;;;3.43;2.50;;;16.00;57.70;16.60;99368.00;;;;5034147;28;20239;-43
2024/01/15 10:33:25;;;;;;;3.13;2.57;;;15.90;57.60;16.60;99367.00;;;;5070213;28;20320;-45
2024/01/15 10:35:54;;;;;;;2.70;2.40;;;16.00;57.60;16.60;99373.00;;;;5070624;28;20255;-44
2024/01/15 10:38:24;;;;;;;3.67;2.53;;;16.00;57.60;16.70;99369.00;;;;5047207;28;20178;-43
2024/01/15 10:40:55;;;;;;;3.17;2.30;;;16.00;57.60;16.70;99369.00;;;;5067416;28;20184;-44
2024/01/15 10:43:21;;;;;;;2.47;2.27;;;16.00;57.60;16.70;99374.00;;;;5070398;28;20213;-43
2024/01/15 10:45:48;;;;;;;3.17;2.37;;;16.00;57.60;16.70;99378.00;;;;5069597;28;20698;-44
2024/01/15 10:48:16;;;;;;;2.47;2.20;;;16.00;57.50;16.70;99370.00;;;;5041503;28;20189;-44